Time;durP1;ratioP1;P1;durP2;ratioP2;P2;SDS_P1;SDS_P2;PMS_P1;PMS_P2;Temp;Humidity;BMP_temperature;BMP_pressure;BME280_temperature;BME280_humidity;BME280_pressure;Samples;Min_cycle;Max_cycle;Signal;HPM_P1;HPM_P2
2023/06/06 00:00:07;;;;;;;6.28;2.50;;;;;;;15.02;100.00;98743.63;5053735;28;20024;-81
2023/06/06 00:02:32;;;;;;;5.30;2.63;;;;;;;15.18;100.00;98772.09;5055212;28;20405;-79
2023/06/06 00:05:00;;;;;;;7.35;2.83;;;;;;;15.06;100.00;98754.88;5043605;28;20037;-78
2023/06/06 00:07:26;;;;;;;4.38;2.80;;;;;;;15.11;100.00;98736.75;5050342;28;20036;-78
2023/06/06 00:09:52;;;;;;;5.10;3.08;;;;;;;14.92;100.00;98727.00;5071152;28;20039;-78
2023/06/06 00:12:17;;;;;;;7.13;3.08;;;;;;;15.07;100.00;98738.28;5054196;28;20407;-78
2023/06/06 00:14:43;;;;;;;3.45;2.50;;;;;;;15.10;100.00;98759.63;5053935;28;20424;-79
2023/06/06 00:17:09;;;;;;;4.60;2.53;;;;;;;14.83;100.00;98729.25;5072406;28;20451;-78
2023/06/06 00:19:35;;;;;;;3.70;2.60;;;;;;;15.10;100.00;98762.34;5071390;28;20030;-78
2023/06/06 00:22:02;;;;;;;4.10;2.65;;;;;;;14.80;100.00;98743.34;5070018;28;20027;-80
2023/06/06 00:24:28;;;;;;;3.95;2.40;;;;;;;14.73;100.00;98739.88;5069904;28;20055;-78
2023/06/06 00:26:53;;;;;;;3.65;2.65;;;;;;;14.77;100.00;98737.50;5052793;28;20031;-79
2023/06/06 00:29:18;;;;;;;5.55;2.70;;;;;;;14.61;100.00;98730.81;5061945;28;20367;-78
2023/06/06 00:31:44;;;;;;;3.60;2.50;;;;;;;14.63;100.00;98751.31;5050220;28;20036;-78
2023/06/06 00:34:09;;;;;;;6.97;2.15;;;;;;;14.82;100.00;98743.09;5053138;28;20440;-78
2023/06/06 00:36:34;;;;;;;4.13;2.67;;;;;;;15.00;100.00;98756.63;5043774;28;20032;-75
2023/06/06 00:39:00;;;;;;;3.28;2.20;;;;;;;14.60;100.00;98712.84;5044597;28;20111;-75
2023/06/06 00:41:25;;;;;;;4.68;2.50;;;;;;;14.71;100.00;98763.78;5071480;28;20020;-77
2023/06/06 00:43:50;;;;;;;4.57;2.60;;;;;;;14.49;100.00;98741.66;5053145;28;20047;-75
2023/06/06 00:46:17;;;;;;;8.82;2.45;;;;;;;14.42;100.00;98752.59;5059239;28;20036;-76
2023/06/06 00:48:43;;;;;;;3.65;2.75;;;;;;;14.42;100.00;98749.06;5048155;28;20029;-75
2023/06/06 00:51:09;;;;;;;4.13;2.75;;;;;;;14.55;100.00;98750.81;5051195;28;20375;-75
2023/06/06 00:53:36;;;;;;;4.40;2.60;;;;;;;14.39;100.00;98742.19;5053875;28;20494;-75
2023/06/06 00:56:02;;;;;;;4.50;2.58;;;;;;;14.39;100.00;98752.25;5048749;28;20505;-75
2023/06/06 00:58:29;;;;;;;3.88;2.67;;;;;;;14.34;100.00;98752.94;5037010;28;20037;-76
2023/06/06 01:00:56;;;;;;;3.33;2.25;;;;;;;14.24;100.00;98749.91;5050872;28;20025;-75
2023/06/06 01:03:24;;;;;;;4.88;2.70;;;;;;;14.38;100.00;98742.41;5076674;28;20104;-75
2023/06/06 01:05:53;;;;;;;4.97;2.90;;;;;;;14.48;100.00;98746.25;5044125;28;20028;-76
2023/06/06 01:08:20;;;;;;;3.85;2.10;;;;;;;14.57;100.00;98770.47;5061646;28;20034;-76
2023/06/06 01:10:46;;;;;;;4.97;2.72;;;;;;;14.53;100.00;98759.19;5062748;28;20024;-76
2023/06/06 01:13:38;;;;;;;3.45;2.53;;;;;;;14.49;100.00;98760.69;5067414;28;20078;-76
2023/06/06 01:16:12;;;;;;;4.38;2.47;;;;;;;14.38;100.00;98735.09;5063628;28;20025;-73
2023/06/06 01:18:41;;;;;;;3.55;2.20;;;;;;;14.73;100.00;98741.78;5048038;28;20029;-75
2023/06/06 01:21:06;;;;;;;3.72;2.38;;;;;;;14.54;100.00;98744.53;5065920;28;20192;-76
2023/06/06 01:23:32;;;;;;;3.72;2.38;;;;;;;14.45;100.00;98716.75;5052971;28;20025;-73
2023/06/06 01:26:04;;;;;;;4.63;2.63;;;;;;;14.64;100.00;98758.41;5051165;28;20032;-76
2023/06/06 01:28:30;;;;;;;4.68;2.55;;;;;;;14.37;100.00;98738.03;5048891;28;20025;-75
2023/06/06 01:30:55;;;;;;;3.55;2.45;;;;;;;14.12;100.00;98733.53;5050065;28;20017;-76
2023/06/06 01:33:43;;;;;;;6.57;2.58;;;;;;;14.13;100.00;98748.78;5051488;28;20017;-75
2023/06/06 01:36:22;;;;;;;3.08;2.30;;;;;;;13.90;100.00;98733.16;5047091;28;20033;-74
2023/06/06 01:38:53;;;;;;;3.80;2.58;;;;;;;13.87;100.00;98758.09;5069337;28;20031;-73
2023/06/06 01:41:21;;;;;;;5.78;2.67;;;;;;;13.65;100.00;98749.53;5074415;28;20108;-73
2023/06/06 01:43:50;;;;;;;3.73;2.40;;;;;;;13.59;100.00;98753.97;5074723;28;20497;-77
2023/06/06 01:46:17;;;;;;;7.50;2.30;;;;;;;13.53;100.00;98749.44;5063668;28;20017;-76
2023/06/06 01:48:43;;;;;;;5.57;2.50;;;;;;;13.45;100.00;98748.91;5067175;28;20025;-76
2023/06/06 01:51:09;;;;;;;4.95;2.70;;;;;;;13.36;100.00;98760.06;5056809;28;20096;-73
2023/06/06 01:53:34;;;;;;;6.78;2.88;;;;;;;13.46;100.00;98761.41;5062972;28;20025;-73
2023/06/06 01:56:00;;;;;;;3.78;2.50;;;;;;;13.36;100.00;98759.19;5070481;28;20048;-74
2023/06/06 01:58:25;;;;;;;4.10;2.55;;;;;;;13.42;100.00;98763.75;5055500;28;20543;-73
2023/06/06 02:00:50;;;;;;;3.85;2.55;;;;;;;13.30;100.00;98766.34;5054387;28;20166;-73
2023/06/06 02:03:16;;;;;;;5.32;2.40;;;;;;;13.07;100.00;98725.34;5056102;28;20027;-73
2023/06/06 02:05:41;;;;;;;4.45;2.70;;;;;;;12.98;100.00;98737.56;5072548;28;20029;-74
2023/06/06 02:08:07;;;;;;;3.75;2.60;;;;;;;13.05;100.00;98768.22;5039628;28;20024;-73
2023/06/06 02:10:32;;;;;;;3.45;2.45;;;;;;;12.90;100.00;98761.19;5073008;28;20078;-73
2023/06/06 02:12:58;;;;;;;4.82;2.72;;;;;;;12.84;100.00;98747.69;5065866;28;20493;-74
2023/06/06 02:15:26;;;;;;;4.53;2.88;;;;;;;12.81;100.00;98765.25;5054605;28;20028;-73
2023/06/06 02:17:52;;;;;;;4.18;2.90;;;;;;;12.69;100.00;98750.69;5056588;28;20022;-73
2023/06/06 02:20:18;;;;;;;6.00;3.00;;;;;;;12.70;100.00;98769.47;5043352;28;20025;-74
2023/06/06 02:22:43;;;;;;;4.13;2.90;;;;;;;12.79;100.00;98766.50;5056846;28;20027;-74
2023/06/06 02:25:09;;;;;;;4.43;3.15;;;;;;;12.69;100.00;98765.09;5054874;28;20502;-74
2023/06/06 02:27:38;;;;;;;4.88;3.22;;;;;;;12.70;100.00;98791.19;5056420;28;20056;-75
2023/06/06 02:30:07;;;;;;;5.82;2.97;;;;;;;12.43;100.00;98766.06;5036438;28;20020;-74
2023/06/06 02:32:32;;;;;;;5.93;2.95;;;;;;;12.48;100.00;98779.81;5054596;28;20138;-73
2023/06/06 02:34:59;;;;;;;4.60;2.33;;;;;;;12.43;100.00;98795.91;5056162;28;20024;-74
2023/06/06 02:37:26;;;;;;;5.85;2.97;;;;;;;12.24;100.00;98786.00;5069661;28;20062;-75
2023/06/06 02:39:52;;;;;;;4.40;2.75;;;;;;;12.24;100.00;98784.09;5053279;28;20020;-74
2023/06/06 02:42:17;;;;;;;5.03;2.92;;;;;;;12.13;100.00;98767.66;5055263;28;20024;-74
2023/06/06 02:44:43;;;;;;;4.50;3.20;;;;;;;12.14;100.00;98785.59;5055542;28;20028;-75
2023/06/06 02:47:08;;;;;;;6.07;3.03;;;;;;;12.24;100.00;98788.72;5067126;28;20064;-75
2023/06/06 02:49:33;;;;;;;3.85;2.88;;;;;;;11.95;100.00;98771.06;5048866;28;20039;-74
2023/06/06 02:51:58;;;;;;;5.40;3.17;;;;;;;12.20;100.00;98795.59;5055349;28;20024;-74
2023/06/06 02:54:24;;;;;;;4.63;3.00;;;;;;;11.88;100.00;98765.66;5055388;28;20028;-74
2023/06/06 02:56:49;;;;;;;5.68;3.65;;;;;;;12.06;100.00;98784.78;5055498;28;20121;-75
2023/06/06 02:59:14;;;;;;;5.10;3.40;;;;;;;11.52;100.00;98717.34;5052742;28;20025;-74
2023/06/06 03:01:44;;;;;;;5.10;3.25;;;;;;;11.92;100.00;98796.72;5055125;28;20562;-74
2023/06/06 03:04:11;;;;;;;6.40;3.67;;;;;;;11.82;100.00;98766.47;5073457;28;20016;-75
2023/06/06 03:06:39;;;;;;;5.35;2.92;;;;;;;11.79;100.00;98783.19;5067738;28;20111;-74
2023/06/06 03:09:05;;;;;;;6.45;3.92;;;;;;;11.83;100.00;98784.41;5050642;28;20036;-74
2023/06/06 03:11:31;;;;;;;6.70;3.28;;;;;;;11.70;100.00;98801.53;5052141;28;20025;-74
2023/06/06 03:13:56;;;;;;;11.15;3.55;;;;;;;11.61;100.00;98790.06;5052046;28;20052;-74
2023/06/06 03:16:26;;;;;;;9.52;3.42;;;;;;;11.69;100.00;98818.00;5062964;28;20093;-74
2023/06/06 03:18:52;;;;;;;6.80;3.50;;;;;;;11.81;100.00;98813.59;5054166;28;20066;-76
2023/06/06 03:21:18;;;;;;;8.65;3.28;;;;;;;11.74;100.00;98801.94;5063280;28;20035;-74
2023/06/06 03:23:43;;;;;;;5.32;3.08;;;;;;;11.81;100.00;98808.16;5046820;28;20021;-74
2023/06/06 03:26:09;;;;;;;5.53;3.53;;;;;;;11.89;100.00;98810.69;5052759;28;20555;-74
2023/06/06 03:28:34;;;;;;;5.32;3.22;;;;;;;11.68;100.00;98805.47;5050395;28;20025;-74
2023/06/06 03:31:01;;;;;;;5.03;3.15;;;;;;;11.61;100.00;98805.50;5074016;28;20523;-74
2023/06/06 03:33:26;;;;;;;4.75;3.30;;;;;;;11.71;100.00;98814.03;5055267;28;20131;-74
2023/06/06 03:35:51;;;;;;;5.20;3.38;;;;;;;11.64;100.00;98821.34;5053268;28;20044;-74
2023/06/06 03:38:18;;;;;;;4.63;3.10;;;;;;;11.38;100.00;98782.38;5053389;28;20679;-74
2023/06/06 03:40:43;;;;;;;4.90;3.22;;;;;;;11.56;100.00;98816.13;5054101;28;20111;-74
2023/06/06 03:43:08;;;;;;;4.85;3.20;;;;;;;11.55;100.00;98803.63;5054379;28;20028;-74
2023/06/06 03:45:34;;;;;;;5.05;3.20;;;;;;;11.47;100.00;98810.06;5067235;28;20025;-74
2023/06/06 03:47:59;;;;;;;7.25;3.20;;;;;;;11.58;100.00;98817.59;5054803;28;20111;-74
2023/06/06 03:50:24;;;;;;;5.32;3.38;;;;;;;11.84;100.00;98842.97;5048278;28;20071;-74
2023/06/06 03:52:50;;;;;;;5.90;3.70;;;;;;;11.94;100.00;98840.72;5050809;28;20047;-74
2023/06/06 03:55:15;;;;;;;4.97;3.08;;;;;;;12.03;100.00;98842.16;5066305;28;20017;-74
2023/06/06 03:57:40;;;;;;;9.65;3.55;;;;;;;11.87;100.00;98815.50;5051192;28;20070;-75
2023/06/06 04:00:11;;;;;;;3.88;3.00;;;;;;;11.97;100.00;98818.63;5044394;28;20017;-74
2023/06/06 04:02:48;;;;;;;4.97;3.30;;;;;;;12.04;100.00;98827.56;5049732;28;20033;-74
2023/06/06 04:05:14;;;;;;;4.22;3.10;;;;;;;12.01;100.00;98813.59;5065044;28;20115;-74
2023/06/06 04:07:40;;;;;;;5.63;3.08;;;;;;;12.16;100.00;98837.75;5053344;28;20367;-74
2023/06/06 04:10:06;;;;;;;6.85;2.78;;;;;;;12.03;100.00;98806.91;5056481;28;20040;-74
2023/06/06 04:12:31;;;;;;;5.43;3.33;;;;;;;12.28;100.00;98833.31;5069698;28;20016;-74
2023/06/06 04:14:57;;;;;;;5.22;3.00;;;;;;;12.44;100.00;98838.31;5052125;28;20416;-74
2023/06/06 04:17:24;;;;;;;4.95;3.22;;;;;;;12.46;100.00;98844.31;5053597;28;20030;-74
2023/06/06 04:19:50;;;;;;;6.25;2.90;;;;;;;12.53;100.00;98835.34;5050971;28;20020;-75
2023/06/06 04:22:15;;;;;;;3.80;2.88;;;;;;;12.52;100.00;98825.53;5043651;28;20448;-74
2023/06/06 04:24:41;;;;;;;6.50;3.42;;;;;;;12.46;100.00;98809.06;5066931;28;20028;-73
2023/06/06 04:27:07;;;;;;;6.07;3.15;;;;;;;12.83;100.00;98839.16;5063274;28;20028;-74
2023/06/06 04:29:35;;;;;;;6.93;3.35;;;;;;;12.87;100.00;98840.38;5052900;28;20024;-73
2023/06/06 04:32:01;;;;;;;5.60;3.03;;;;;;;12.94;100.00;98838.47;5052375;28;20455;-73
2023/06/06 04:34:29;;;;;;;6.05;3.00;;;;;;;12.96;100.00;98845.56;5049826;28;20098;-74
2023/06/06 04:37:01;;;;;;;5.15;3.40;;;;;;;13.09;100.00;98846.31;5050415;28;20093;-74
2023/06/06 04:39:27;;;;;;;5.00;3.53;;;;;;;13.16;100.00;98841.66;5057021;28;20056;-74
2023/06/06 04:41:56;;;;;;;6.90;3.40;;;;;;;13.31;100.00;98852.28;5058511;28;20048;-74
2023/06/06 04:44:22;;;;;;;6.18;3.30;;;;;;;13.13;100.00;98811.41;5053422;28;20029;-74
2023/06/06 04:46:47;;;;;;;4.53;3.08;;;;;;;13.47;100.00;98833.75;5071085;28;20111;-73
2023/06/06 04:49:13;;;;;;;4.65;3.15;;;;;;;13.63;100.00;98844.06;5049002;28;20155;-74
2023/06/06 04:51:40;;;;;;;6.35;2.72;;;;;;;13.76;100.00;98843.13;5052278;28;20020;-74
2023/06/06 04:54:06;;;;;;;4.95;2.85;;;;;;;13.79;100.00;98831.81;5044824;28;20029;-75
2023/06/06 04:56:32;;;;;;;4.55;2.88;;;;;;;13.91;100.00;98815.56;5054867;28;20571;-74
2023/06/06 04:59:06;;;;;;;3.53;2.70;;;;;;;14.21;100.00;98842.91;5069017;28;20503;-74
2023/06/06 05:01:41;;;;;;;8.02;3.50;;;;;;;14.29;100.00;98839.88;5051181;28;20029;-74
2023/06/06 05:04:07;;;;;;;5.90;2.97;;;;;;;14.39;100.00;98842.91;5053498;28;20032;-74
2023/06/06 05:06:34;;;;;;;4.88;2.80;;;;;;;14.63;100.00;98841.16;5071188;28;20099;-74
2023/06/06 05:09:03;;;;;;;6.07;3.20;;;;;;;14.46;100.00;98772.88;5044118;28;20078;-74
2023/06/06 05:11:28;;;;;;;7.40;3.35;;;;;;;15.12;100.00;98841.97;5056223;28;20032;-74
2023/06/06 05:13:53;;;;;;;7.25;3.30;;;;;;;15.29;100.00;98831.22;5057262;28;20029;-74
2023/06/06 05:16:19;;;;;;;4.13;3.00;;;;;;;15.37;100.00;98804.72;5056524;28;20024;-74
2023/06/06 05:18:44;;;;;;;4.55;3.20;;;;;;;15.73;100.00;98825.53;5051719;28;20024;-75
2023/06/06 05:21:10;;;;;;;7.07;3.28;;;;;;;15.75;100.00;98831.59;5063913;28;20021;-75
2023/06/06 05:23:35;;;;;;;4.32;3.10;;;;;;;15.67;100.00;98823.72;5068435;28;20112;-72
2023/06/06 05:26:00;;;;;;;5.55;3.13;;;;;;;15.74;100.00;98822.56;5069116;28;20021;-70
2023/06/06 05:28:29;;;;;;;5.22;3.30;;;;;;;15.90;100.00;98837.41;5071927;28;20028;-70
2023/06/06 05:30:57;;;;;;;6.07;3.00;;;;;;;15.93;100.00;98836.94;5069557;28;20024;-71
2023/06/06 05:33:25;;;;;;;4.47;3.15;;;;;;;16.18;100.00;98844.84;5074917;28;20312;-70
2023/06/06 05:35:51;;;;;;;4.88;3.33;;;;;;;16.09;100.00;98845.47;5069648;28;20036;-71
2023/06/06 05:38:18;;;;;;;8.38;4.10;;;;;;;16.14;100.00;98859.25;5074021;28;20020;-70
2023/06/06 05:40:43;;;;;;;5.95;3.20;;;;;;;16.21;100.00;98851.72;5073914;28;20055;-70
2023/06/06 05:43:08;;;;;;;4.55;2.83;;;;;;;16.27;100.00;98859.00;5054181;28;20017;-71
2023/06/06 05:45:33;;;;;;;4.53;3.28;;;;;;;16.57;100.00;98852.53;5067283;28;20025;-72
2023/06/06 05:47:59;;;;;;;6.03;3.33;;;;;;;17.00;100.00;98856.69;5072652;28;20106;-71
2023/06/06 05:50:24;;;;;;;9.05;2.88;;;;;;;17.16;100.00;98844.97;5067456;28;20035;-72
2023/06/06 05:52:50;;;;;;;8.80;3.45;;;;;;;17.39;100.00;98859.59;5055480;28;20020;-72
2023/06/06 05:55:32;;;;;;;5.18;3.05;;;;;;;17.31;100.00;98858.09;5072483;28;20032;-73
2023/06/06 05:57:58;;;;;;;5.70;3.15;;;;;;;17.52;100.00;98851.06;5064795;28;20029;-78
2023/06/06 06:00:25;;;;;;;5.25;3.13;;;;;;;17.83;100.00;98851.63;5047846;28;20031;-74
2023/06/06 06:02:53;;;;;;;5.38;3.40;;;;;;;17.90;100.00;98849.53;5074514;28;20446;-72
2023/06/06 06:05:19;;;;;;;4.18;2.78;;;;;;;18.31;100.00;98853.72;5054659;28;20032;-72
2023/06/06 06:07:44;;;;;;;4.85;2.75;;;;;;;18.51;100.00;98850.41;5054995;28;20046;-72
2023/06/06 06:10:10;;;;;;;5.40;2.97;;;;;;;18.52;100.00;98852.09;5054282;28;20028;-74
2023/06/06 06:12:35;;;;;;;8.77;2.72;;;;;;;18.51;100.00;98836.72;5074369;28;20096;-73
2023/06/06 06:15:01;;;;;;;3.88;2.80;;;;;;;18.92;100.00;98834.50;5073373;28;20440;-75
2023/06/06 06:17:26;;;;;;;3.92;2.72;;;;;;;18.92;100.00;98856.44;5061542;28;20036;-74
2023/06/06 06:19:51;;;;;;;3.67;2.53;;;;;;;19.03;100.00;98849.97;5046647;28;20047;-72
2023/06/06 06:22:17;;;;;;;4.10;2.70;;;;;;;19.23;100.00;98859.50;5071259;28;20048;-74
2023/06/06 06:24:42;;;;;;;4.68;3.05;;;;;;;19.82;100.00;98850.47;5050682;28;20036;-75
2023/06/06 06:27:08;;;;;;;5.10;3.25;;;;;;;20.32;100.00;98852.72;5068968;28;20032;-73
2023/06/06 06:29:33;;;;;;;4.50;3.00;;;;;;;20.21;100.00;98851.03;5071782;28;20026;-72
2023/06/06 06:31:58;;;;;;;6.68;3.17;;;;;;;20.50;100.00;98845.13;5072201;28;20027;-73
2023/06/06 06:34:24;;;;;;;7.28;2.63;;;;;;;20.84;100.00;98850.28;5054629;28;20497;-73
2023/06/06 06:36:49;;;;;;;6.80;2.88;;;;;;;20.46;100.00;98850.34;5043293;28;20123;-71
2023/06/06 06:39:18;;;;;;;6.00;2.78;;;;;;;20.74;100.00;98870.28;5073156;28;20043;-72
2023/06/06 06:41:45;;;;;;;4.78;2.50;;;;;;;21.09;100.00;98875.13;5069206;28;20024;-74
2023/06/06 06:44:10;;;;;;;4.20;2.78;;;;;;;21.35;100.00;98864.16;5073568;28;20021;-72
2023/06/06 06:46:36;;;;;;;7.43;2.85;;;;;;;21.94;100.00;98860.09;5047111;28;20031;-72
2023/06/06 06:49:01;;;;;;;6.43;2.70;;;;;;;23.21;100.00;98852.56;5068802;28;20028;-72
2023/06/06 06:51:27;;;;;;;6.68;3.13;;;;;;;25.38;88.91;98857.34;5055107;28;20118;-72
2023/06/06 06:53:53;;;;;;;3.38;2.63;;;;;;;27.00;76.93;98868.63;5052071;28;20021;-72
2023/06/06 06:56:18;;;;;;;7.57;3.20;;;;;;;27.53;70.55;98865.25;5059000;28;20040;-72
2023/06/06 06:58:44;;;;;;;7.53;2.97;;;;;;;29.20;63.64;98842.75;5060372;28;20099;-72
2023/06/06 07:01:10;;;;;;;4.05;2.45;;;;;;;31.20;57.41;98862.69;5073142;28;20078;-72
2023/06/06 07:03:36;;;;;;;3.80;2.30;;;;;;;31.51;53.87;98861.50;5072799;28;20035;-72
2023/06/06 07:06:03;;;;;;;4.35;2.80;;;;;;;32.96;50.01;98844.66;5054064;28;20028;-72
2023/06/06 07:08:28;;;;;;;3.50;2.45;;;;;;;32.25;49.62;98857.06;5069995;28;20112;-72
2023/06/06 07:10:53;;;;;;;4.40;2.75;;;;;;;32.69;48.20;98865.78;5041554;28;20541;-72
2023/06/06 07:13:19;;;;;;;4.22;2.58;;;;;;;32.33;46.96;98846.91;5066917;28;20020;-72
2023/06/06 07:15:45;;;;;;;3.75;2.00;;;;;;;33.10;46.64;98855.53;5068162;28;20120;-72
2023/06/06 07:18:12;;;;;;;3.03;2.40;;;;;;;33.79;45.03;98850.81;5061351;28;20055;-72
2023/06/06 07:20:38;;;;;;;4.53;2.45;;;;;;;34.91;41.79;98841.38;5068851;28;20028;-76
2023/06/06 07:23:03;;;;;;;4.75;2.47;;;;;;;32.80;43.96;98849.31;5045918;28;20055;-69
2023/06/06 07:25:28;;;;;;;4.63;2.60;;;;;;;33.51;43.35;98856.38;5059639;28;20028;-72
2023/06/06 07:27:54;;;;;;;3.15;2.03;;;;;;;34.61;42.46;98848.63;5068042;28;20029;-72
2023/06/06 07:30:20;;;;;;;5.20;2.30;;;;;;;34.47;41.53;98857.50;5049201;28;20444;-72
2023/06/06 07:32:49;;;;;;;3.33;2.10;;;;;;;34.87;40.08;98839.63;5055322;28;20020;-71
2023/06/06 07:35:17;;;;;;;6.47;2.20;;;;;;;36.57;39.32;98857.75;5051122;28;20028;-72
2023/06/06 07:37:42;;;;;;;4.47;2.23;;;;;;;37.89;37.01;98849.66;5046439;28;20025;-72
2023/06/06 07:40:10;;;;;;;6.18;2.20;;;;;;;37.02;37.24;98846.78;5063815;28;20277;-72
2023/06/06 07:42:36;;;;;;;9.35;2.75;;;;;;;34.87;38.09;98842.44;5063640;28;20119;-72
2023/06/06 07:45:05;;;;;;;4.43;2.42;;;;;;;35.78;38.69;98850.56;5050874;28;20526;-72
2023/06/06 07:47:30;;;;;;;5.72;2.10;;;;;;;35.99;38.15;98849.38;5062610;28;20025;-72
2023/06/06 07:49:56;;;;;;;3.35;2.40;;;;;;;35.81;37.79;98834.94;5062732;28;20040;-72
2023/06/06 07:52:21;;;;;;;4.50;2.50;;;;;;;36.14;36.89;98830.78;5054090;28;20025;-71
2023/06/06 07:54:46;;;;;;;5.82;2.30;;;;;;;36.28;36.69;98836.69;5070713;28;20028;-71
2023/06/06 07:57:15;;;;;;;4.50;2.53;;;;;;;35.72;37.31;98837.19;5064988;28;20032;-71
2023/06/06 07:59:42;;;;;;;3.17;2.30;;;;;;;36.18;36.37;98828.84;5071235;28;20020;-72
2023/06/06 08:02:07;;;;;;;9.93;2.70;;;;;;;37.00;34.88;98821.81;5053197;28;20025;-72
2023/06/06 08:04:32;;;;;;;2.88;1.90;;;;;;;36.70;35.69;98833.00;5072485;28;20032;-72
2023/06/06 08:06:58;;;;;;;5.00;2.05;;;;;;;37.00;34.78;98821.81;5071839;28;20490;-72
2023/06/06 08:09:23;;;;;;;4.55;2.13;;;;;;;37.39;33.10;98821.59;5071036;28;20028;-72
2023/06/06 08:11:48;;;;;;;3.78;2.00;;;;;;;37.53;31.93;98832.25;5053884;28;20024;-72
2023/06/06 08:14:14;;;;;;;3.75;1.63;;;;;;;37.41;30.33;98824.00;5053231;28;20028;-72
2023/06/06 08:16:39;;;;;;;4.85;1.80;;;;;;;36.85;30.73;98826.41;5070553;28;20051;-72
2023/06/06 08:19:05;;;;;;;2.47;1.80;;;;;;;37.24;31.20;98842.31;5070779;28;20028;-72
2023/06/06 08:21:30;;;;;;;2.13;1.42;;;;;;;37.47;30.68;98830.97;5070336;28;20039;-72
2023/06/06 08:23:57;;;;;;;2.37;1.77;;;;;;;39.22;30.15;98837.56;5057857;28;20036;-72
2023/06/06 08:26:25;;;;;;;3.67;1.77;;;;;;;37.89;30.22;98816.56;5068005;28;20275;-72
2023/06/06 08:28:53;;;;;;;2.90;1.70;;;;;;;38.99;30.05;98827.34;5070873;28;20100;-72
2023/06/06 08:31:19;;;;;;;3.22;1.70;;;;;;;39.74;28.96;98820.47;5065451;28;20033;-72
2023/06/06 08:33:45;;;;;;;2.83;1.63;;;;;;;39.44;27.90;98830.84;5063262;28;20170;-72
2023/06/06 08:36:12;;;;;;;2.55;1.80;;;;;;;38.10;28.71;98830.16;5055203;28;20500;-71
2023/06/06 08:38:38;;;;;;;2.47;1.90;;;;;;;36.65;29.63;98830.50;5049820;28;20021;-72
2023/06/06 08:41:05;;;;;;;2.55;1.45;;;;;;;37.41;30.11;98818.34;5064208;28;20111;-72
2023/06/06 08:43:36;;;;;;;2.72;1.70;;;;;;;38.77;29.63;98826.31;5071334;28;20044;-72
2023/06/06 08:46:02;;;;;;;2.53;1.58;;;;;;;39.29;28.93;98829.13;5066320;28;20024;-72
2023/06/06 08:48:29;;;;;;;8.38;2.25;;;;;;;39.80;28.46;98819.72;5068049;28;20445;-72
2023/06/06 08:50:56;;;;;;;2.60;1.63;;;;;;;40.35;27.35;98821.50;5063610;28;20020;-72
2023/06/06 08:53:22;;;;;;;3.13;1.70;;;;;;;41.02;28.20;98827.56;5066716;28;20043;-72
2023/06/06 08:55:47;;;;;;;7.95;1.75;;;;;;;40.24;27.72;98829.94;5059645;28;20033;-72
2023/06/06 08:58:14;;;;;;;2.58;1.73;;;;;;;40.78;27.98;98824.34;5064250;28;20021;-72
2023/06/06 09:00:40;;;;;;;3.75;1.83;;;;;;;41.17;27.24;98818.63;5071056;28;20024;-72
2023/06/06 09:03:06;;;;;;;2.50;1.75;;;;;;;41.59;26.87;98825.41;5070083;28;20070;-72
2023/06/06 09:05:32;;;;;;;4.50;1.73;;;;;;;40.84;26.86;98825.53;5070773;28;20037;-73
2023/06/06 09:08:01;;;;;;;3.03;1.80;;;;;;;43.03;25.12;98818.81;5071130;28;20023;-73
2023/06/06 09:10:26;;;;;;;3.28;1.65;;;;;;;41.79;25.86;98819.22;5070817;28;20094;-73
2023/06/06 09:12:51;;;;;;;4.90;2.07;;;;;;;42.25;25.70;98823.88;5052253;28;20029;-72
2023/06/06 09:15:17;;;;;;;1.97;1.63;;;;;;;43.21;26.08;98819.44;5070452;28;20285;-73
2023/06/06 09:17:46;;;;;;;3.67;2.10;;;;;;;42.45;26.13;98816.44;5070777;28;20319;-73
2023/06/06 09:20:15;;;;;;;3.08;1.63;;;;;;;42.53;25.55;98807.84;5039173;28;20028;-73
2023/06/06 09:22:41;;;;;;;2.85;2.00;;;;;;;40.57;26.72;98819.47;5054533;28;20043;-72
2023/06/06 09:25:22;;;;;;;4.47;1.80;;;;;;;42.01;26.53;98817.94;5063243;28;20021;-72
2023/06/06 09:27:52;;;;;;;4.47;1.63;;;;;;;42.36;25.89;98816.09;5053317;28;20016;-72
2023/06/06 09:30:20;;;;;;;3.85;2.08;;;;;;;40.86;27.44;98810.97;5070263;28;20039;-72
2023/06/06 09:32:50;;;;;;;5.65;2.13;;;;;;;40.13;27.22;98819.78;5070570;28;20052;-73
2023/06/06 09:35:15;;;;;;;3.92;1.98;;;;;;;40.36;27.33;98816.63;5060328;28;20377;-72
2023/06/06 09:37:41;;;;;;;6.72;1.98;;;;;;;39.92;27.88;98803.56;5048448;28;20485;-72
2023/06/06 09:40:19;;;;;;;2.73;1.80;;;;;;;41.42;27.33;98806.38;5070889;28;20028;-72
2023/06/06 09:42:46;;;;;;;4.90;1.92;;;;;;;42.66;26.06;98806.91;5058149;28;20361;-73
2023/06/06 09:45:13;;;;;;;4.10;2.10;;;;;;;42.01;27.45;98806.56;5082050;28;20391;-73
2023/06/06 09:47:40;;;;;;;3.57;1.80;;;;;;;42.82;27.25;98812.09;5051160;28;20348;-73
2023/06/06 09:50:06;;;;;;;2.15;1.80;;;;;;;42.35;26.66;98802.31;5065804;28;20024;-78
2023/06/06 09:52:31;;;;;;;3.17;1.95;;;;;;;43.17;26.86;98804.44;5052903;28;20026;-73
2023/06/06 09:54:56;;;;;;;3.17;1.63;;;;;;;43.58;26.48;98791.38;5068023;28;20047;-73
2023/06/06 09:57:22;;;;;;;3.77;1.80;;;;;;;43.06;26.49;98800.88;5070869;28;20115;-73
2023/06/06 09:59:49;;;;;;;4.13;1.90;;;;;;;43.28;26.32;98790.88;5070234;28;20032;-73
2023/06/06 10:02:19;;;;;;;4.45;1.92;;;;;;;42.87;26.64;98791.72;5071131;28;20024;-73
2023/06/06 10:04:45;;;;;;;2.75;2.03;;;;;;;42.36;26.46;98812.44;5071460;28;20028;-73
2023/06/06 10:07:11;;;;;;;2.30;1.88;;;;;;;41.62;26.98;98805.94;5066696;28;20051;-72
2023/06/06 10:09:37;;;;;;;3.80;1.90;;;;;;;43.33;26.05;98801.00;5053053;28;20052;-73
2023/06/06 10:12:03;;;;;;;2.58;1.67;;;;;;;43.00;25.84;98805.41;5073387;28;20423;-72
2023/06/06 10:14:30;;;;;;;4.72;1.90;;;;;;;42.80;25.96;98794.63;5049532;28;20071;-72
2023/06/06 10:16:55;;;;;;;2.60;1.67;;;;;;;43.25;26.24;98796.63;5068007;28;20501;-73
2023/06/06 10:19:24;;;;;;;3.70;1.80;;;;;;;43.37;25.86;98793.22;5048357;28;20036;-73
2023/06/06 10:21:51;;;;;;;3.15;2.10;;;;;;;43.25;25.95;98797.41;5074393;28;20123;-72
2023/06/06 10:24:16;;;;;;;2.58;2.00;;;;;;;42.70;25.79;98789.81;5051425;28;20016;-73
2023/06/06 10:26:55;;;;;;;3.57;2.23;;;;;;;43.27;26.18;98797.81;5071077;28;20111;-72
2023/06/06 10:29:37;;;;;;;3.35;1.95;;;;;;;42.59;26.45;98789.91;5051929;28;20664;-78
2023/06/06 10:32:15;;;;;;;3.78;1.98;;;;;;;42.00;26.42;98798.44;5052845;28;20454;-75
2023/06/06 10:34:47;;;;;;;2.78;1.80;;;;;;;40.25;27.40;98796.78;5065795;28;20032;-74
2023/06/06 10:37:25;;;;;;;4.20;2.03;;;;;;;41.09;26.71;98796.38;5067683;28;20428;-73
2023/06/06 10:40:03;;;;;;;3.40;2.20;;;;;;;39.21;28.43;98799.97;5068492;28;20031;-73
2023/06/06 10:42:40;;;;;;;3.50;2.15;;;;;;;41.00;27.08;98796.75;5069156;28;20394;-76
2023/06/06 10:45:09;;;;;;;5.25;2.30;;;;;;;37.23;29.15;98793.56;5071089;28;20040;-71
2023/06/06 10:47:39;;;;;;;4.80;2.28;;;;;;;39.20;28.76;98795.53;5071444;28;20035;-71
2023/06/06 10:50:12;;;;;;;3.42;2.20;;;;;;;39.15;28.22;98783.78;5069097;28;20048;-70
2023/06/06 10:53:04;;;;;;;3.78;2.13;;;;;;;39.47;28.34;98798.09;5070615;28;20482;-70
2023/06/06 10:55:30;;;;;;;4.88;2.00;;;;;;;40.25;28.19;98797.56;5072125;28;20113;-71
2023/06/06 10:58:14;;;;;;;3.85;2.10;;;;;;;42.29;26.38;98787.69;5076484;28;20465;-72
2023/06/06 11:00:44;;;;;;;4.82;2.17;;;;;;;42.07;26.37;98789.06;5064860;28;20048;-72
2023/06/06 11:03:13;;;;;;;3.08;2.00;;;;;;;42.44;26.14;98783.53;5064190;28;20074;-72
2023/06/06 11:06:00;;;;;;;7.82;2.20;;;;;;;41.35;26.14;98781.69;5052180;28;20017;-72
2023/06/06 11:08:43;;;;;;;3.25;1.90;;;;;;;41.43;26.03;98770.28;5065861;28;20033;-72
2023/06/06 11:11:14;;;;;;;7.20;2.20;;;;;;;40.73;27.07;98777.34;5071778;28;20461;-72
2023/06/06 11:13:56;;;;;;;2.53;1.77;;;;;;;42.15;25.80;98777.22;5068133;28;20487;-72
2023/06/06 11:16:40;;;;;;;5.43;2.10;;;;;;;41.26;25.63;98781.28;5060633;28;20063;-72
2023/06/06 11:19:09;;;;;;;5.45;1.90;;;;;;;41.84;25.58;98776.19;5069007;28;20486;-72
2023/06/06 11:21:38;;;;;;;4.32;2.17;;;;;;;43.13;24.84;98772.31;5066460;28;20478;-72
2023/06/06 11:24:08;;;;;;;2.40;1.77;;;;;;;42.44;24.46;98760.75;5050944;28;20040;-74
2023/06/06 11:26:35;;;;;;;4.15;2.00;;;;;;;42.48;24.33;98755.06;5057941;28;20026;-76
2023/06/06 11:29:00;;;;;;;4.05;1.98;;;;;;;40.38;25.88;98757.50;5068931;28;20085;-75